createdAt,value
2023-04-09T00:01:20.860Z,47.15
2023-04-09T00:03:48.855Z,46.55
2023-04-09T00:06:18.123Z,48.10
2023-04-09T00:08:46.027Z,46.80
2023-04-09T00:11:13.974Z,48.20
2023-04-09T00:13:41.905Z,47.53
2023-04-09T00:16:09.818Z,47.75
2023-04-09T00:18:37.807Z,49.45
2023-04-09T00:21:07.011Z,48.92
2023-04-09T00:23:36.527Z,48.20
2023-04-09T00:26:04.468Z,47.63
2023-04-09T00:28:32.355Z,49.60
2023-04-09T00:31:00.420Z,47.70
2023-04-09T00:33:28.354Z,50.13
2023-04-09T00:35:56.689Z,51.03
2023-04-09T00:38:24.654Z,49.50
2023-04-09T00:40:53.943Z,50.00
2023-04-09T00:43:22.178Z,50.42
2023-04-09T00:45:50.362Z,49.67
2023-04-09T00:48:18.661Z,48.92
2023-04-09T00:50:46.636Z,51.53
2023-04-09T00:53:16.847Z,50.35
2023-04-09T00:55:45.772Z,52.13
2023-04-09T00:58:15.663Z,51.58
2023-04-09T01:00:43.614Z,50.15
2023-04-09T01:03:11.852Z,51.08
2023-04-09T01:05:45.048Z,53.47
2023-04-09T01:08:20.307Z,49.13
2023-04-09T01:10:55.020Z,51.10
2023-04-09T01:13:31.495Z,51.07
2023-04-09T01:16:02.870Z,52.65
2023-04-09T01:18:37.582Z,51.88
2023-04-09T01:21:10.660Z,52.25
2023-04-09T01:23:47.821Z,49.97
2023-04-09T01:26:23.577Z,49.55
2023-04-09T01:28:58.516Z,48.33
2023-04-09T01:31:31.719Z,48.13
2023-04-09T01:34:01.252Z,48.28
2023-04-09T01:36:32.339Z,50.03
2023-04-09T01:39:02.708Z,49.65
2023-04-09T01:41:33.627Z,47.75
2023-04-09T01:44:05.335Z,48.22
2023-04-09T01:46:34.684Z,47.78
2023-04-09T01:49:03.644Z,46.58
2023-04-09T01:51:33.033Z,48.17
2023-04-09T01:54:01.309Z,46.70
2023-04-09T01:56:29.189Z,45.28
2023-04-09T01:58:57.105Z,46.50
2023-04-09T02:01:34.383Z,46.63
2023-04-09T02:04:04.385Z,47.17
2023-04-09T02:06:39.735Z,45.92
2023-04-09T02:09:10.518Z,48.15
2023-04-09T02:11:41.341Z,47.57
2023-04-09T02:14:12.179Z,48.10
2023-04-09T02:16:42.182Z,45.88
2023-04-09T02:19:10.092Z,46.72
2023-04-09T02:21:38.044Z,48.50
2023-04-09T02:24:06.369Z,47.00
2023-04-09T02:26:34.259Z,45.97
2023-04-09T02:29:02.147Z,46.85
2023-04-09T02:31:30.171Z,47.15
2023-04-09T02:33:59.517Z,47.75
2023-04-09T02:36:27.642Z,50.00
2023-04-09T02:38:56.452Z,48.13
2023-04-09T02:41:24.845Z,46.40
2023-04-09T02:43:52.734Z,49.85
2023-04-09T02:46:20.792Z,49.08
2023-04-09T02:48:49.361Z,48.33
2023-04-09T02:51:18.878Z,47.38
2023-04-09T02:53:46.815Z,48.05
2023-04-09T02:56:14.787Z,50.28
2023-04-09T02:58:42.775Z,52.00
2023-04-09T03:01:11.006Z,49.15
2023-04-09T03:03:42.083Z,47.72
2023-04-09T03:06:10.517Z,45.70
2023-04-09T03:08:39.847Z,47.22
2023-04-09T03:11:08.024Z,49.10
2023-04-09T03:13:35.890Z,46.75
2023-04-09T03:16:03.865Z,49.58
2023-04-09T03:18:31.800Z,50.67
2023-04-09T03:20:59.716Z,49.25
2023-04-09T03:23:34.236Z,48.65
2023-04-09T03:26:05.476Z,49.17
2023-04-09T03:28:40.659Z,49.73
2023-04-09T03:31:08.682Z,48.17
2023-04-09T03:33:38.936Z,47.85
2023-04-09T03:36:07.854Z,47.50
2023-04-09T03:38:58.054Z,46.38
2023-04-09T03:41:32.436Z,47.42
2023-04-09T03:44:04.215Z,47.83
2023-04-09T03:46:39.298Z,46.33
2023-04-09T03:49:09.498Z,47.50
2023-04-09T03:51:41.869Z,45.53
2023-04-09T03:54:09.979Z,46.05
2023-04-09T03:56:39.756Z,44.10
2023-04-09T03:59:10.609Z,48.10
2023-04-09T04:01:41.606Z,44.00
2023-04-09T04:04:10.386Z,46.67
2023-04-09T04:07:07.700Z,44.65
2023-04-09T04:09:44.442Z,48.58
2023-04-09T04:12:17.604Z,46.70
2023-04-09T04:15:06.519Z,46.63
2023-04-09T04:17:39.369Z,44.40
2023-04-09T04:20:15.351Z,41.78
2023-04-09T04:22:55.325Z,46.35
2023-04-09T04:25:24.829Z,46.40
2023-04-09T04:27:55.077Z,45.85
2023-04-09T04:30:26.826Z,47.58
2023-04-09T04:33:07.272Z,46.45
2023-04-09T04:35:42.755Z,48.10
2023-04-09T04:38:23.360Z,48.00
2023-04-09T04:40:51.775Z,44.65
2023-04-09T04:43:21.278Z,46.50
2023-04-09T04:45:51.352Z,47.65
2023-04-09T04:48:23.879Z,46.47
2023-04-09T04:50:56.822Z,48.35
2023-04-09T04:53:26.277Z,44.55
2023-04-09T04:55:55.999Z,48.20
2023-04-09T04:58:29.328Z,43.53
2023-04-09T05:01:00.432Z,48.42
2023-04-09T05:03:28.709Z,51.33
2023-04-09T05:06:16.898Z,53.30
2023-04-09T05:08:46.409Z,51.83
2023-04-09T05:11:16.804Z,53.85
2023-04-09T05:13:48.998Z,53.08
2023-04-09T05:16:18.552Z,49.08
2023-04-09T05:18:51.205Z,52.45
2023-04-09T05:21:19.374Z,48.15
2023-04-09T05:23:48.741Z,54.30
2023-04-09T05:26:16.955Z,50.15
2023-04-09T05:28:54.382Z,52.30
2023-04-09T05:31:24.334Z,48.60
2023-04-09T05:34:06.364Z,45.20
2023-04-09T05:36:39.126Z,51.03
2023-04-09T05:39:07.109Z,45.85
2023-04-09T05:41:37.235Z,45.08
2023-04-09T05:44:29.730Z,50.03
2023-04-09T05:47:04.925Z,50.17
2023-04-09T05:49:40.207Z,47.92
2023-04-09T05:52:12.846Z,49.08
2023-04-09T05:54:40.996Z,49.28
2023-04-09T05:57:10.733Z,49.23
2023-04-09T05:59:42.740Z,47.85
2023-04-09T06:02:10.877Z,49.05
2023-04-09T06:04:38.916Z,47.70
2023-04-09T06:07:06.828Z,48.85
2023-04-09T06:09:34.747Z,45.83
2023-04-09T06:12:03.144Z,44.50
2023-04-09T06:14:32.767Z,47.90
2023-04-09T06:17:02.206Z,44.92
2023-04-09T06:19:30.242Z,42.70
2023-04-09T06:21:58.318Z,44.13
2023-04-09T06:24:26.289Z,45.17
2023-04-09T06:26:54.189Z,43.22
2023-04-09T06:29:24.294Z,44.40
2023-04-09T06:31:52.563Z,44.10
2023-04-09T06:34:21.791Z,43.42
2023-04-09T06:36:49.733Z,44.03
2023-04-09T06:39:17.637Z,43.38
2023-04-09T06:41:46.394Z,41.00
2023-04-09T06:44:26.035Z,40.97
2023-04-09T06:46:54.056Z,41.42
2023-04-09T06:49:23.428Z,41.03
2023-04-09T06:51:53.415Z,39.88
2023-04-09T06:54:21.629Z,40.80
2023-04-09T06:56:49.524Z,37.83
2023-04-09T06:59:17.585Z,38.53
2023-04-09T07:01:45.931Z,42.17
2023-04-09T07:04:14.206Z,40.00
2023-04-09T07:06:43.517Z,39.35
2023-04-09T07:09:11.485Z,39.20
2023-04-09T07:11:57.944Z,37.58
2023-04-09T07:14:25.867Z,39.85
2023-04-09T07:16:53.868Z,37.17
2023-04-09T07:19:21.735Z,37.40
2023-04-09T07:21:51.020Z,37.80
2023-04-09T07:24:18.947Z,38.13
2023-04-09T07:26:46.839Z,38.58
2023-04-09T07:29:15.529Z,37.88
2023-04-09T07:31:44.730Z,38.15
2023-04-09T07:34:12.661Z,37.70
2023-04-09T07:36:41.003Z,37.05
2023-04-09T07:39:10.215Z,37.73
2023-04-09T07:41:38.177Z,37.45
2023-04-09T07:44:07.429Z,38.35
2023-04-09T07:46:35.375Z,38.03
2023-04-09T07:49:03.214Z,37.78
2023-04-09T07:51:31.267Z,37.50
2023-04-09T07:53:59.119Z,38.63
2023-04-09T07:56:28.361Z,39.90
2023-04-09T07:58:56.323Z,37.88
2023-04-09T08:01:26.082Z,36.55
2023-04-09T08:03:54.197Z,37.65
2023-04-09T08:06:22.210Z,38.35
2023-04-09T08:08:50.144Z,36.90
2023-04-09T08:11:22.166Z,37.25
2023-04-09T08:13:51.467Z,38.72
2023-04-09T08:16:19.687Z,38.75
2023-04-09T08:18:47.751Z,36.45
2023-04-09T08:21:16.022Z,36.63
2023-04-09T08:23:43.929Z,36.78
2023-04-09T08:26:11.911Z,39.10
2023-04-09T08:28:39.772Z,36.60
2023-04-09T08:31:10.632Z,36.60
2023-04-09T08:33:38.532Z,38.03
2023-04-09T08:36:11.243Z,38.03
2023-04-09T08:38:39.107Z,36.97
2023-04-09T08:41:07.089Z,36.27
2023-04-09T08:43:53.237Z,36.40
2023-04-09T08:46:26.091Z,36.63
2023-04-09T08:48:54.725Z,37.28
2023-04-09T08:51:24.225Z,38.47
2023-04-09T08:53:57.440Z,35.88
2023-04-09T08:56:26.141Z,35.33
2023-04-09T08:58:56.105Z,36.05
2023-04-09T09:01:27.266Z,34.20
2023-04-09T09:04:00.720Z,34.85
2023-04-09T09:06:32.858Z,34.70
2023-04-09T09:09:03.411Z,36.00
2023-04-09T09:11:31.540Z,34.75
2023-04-09T09:14:00.287Z,33.25
2023-04-09T09:16:29.696Z,33.97
2023-04-09T09:18:57.874Z,33.22
2023-04-09T09:21:27.281Z,35.53
2023-04-09T09:23:56.333Z,34.20
2023-04-09T09:26:25.797Z,35.15
2023-04-09T09:28:54.358Z,34.38
2023-04-09T09:31:24.184Z,34.27
2023-04-09T09:33:54.239Z,36.07
2023-04-09T09:36:35.564Z,34.40
2023-04-09T09:39:09.674Z,33.13
2023-04-09T09:41:38.328Z,34.08
2023-04-09T09:44:08.096Z,33.55
2023-04-09T09:46:38.354Z,33.00
2023-04-09T09:49:26.279Z,30.63
2023-04-09T09:51:57.565Z,30.52
2023-04-09T09:54:30.808Z,29.63
2023-04-09T09:57:03.530Z,29.48
2023-04-09T09:59:35.306Z,30.50
2023-04-09T10:02:07.445Z,27.95
2023-04-09T10:04:37.891Z,24.80
2023-04-09T10:07:07.546Z,27.20
2023-04-09T10:09:38.670Z,29.63
2023-04-09T10:12:08.459Z,25.23
2023-04-09T10:14:36.416Z,21.65
2023-04-09T10:17:05.273Z,21.17
2023-04-09T10:19:39.727Z,21.20
2023-04-09T10:22:11.353Z,18.80
2023-04-09T10:24:40.975Z,18.92
2023-04-09T10:27:15.734Z,21.75
2023-04-09T10:29:46.149Z,24.98
2023-04-09T10:32:20.964Z,21.52
2023-04-09T10:34:51.937Z,21.35
2023-04-09T10:37:23.428Z,22.38
2023-04-09T10:39:52.375Z,22.42
2023-04-09T10:42:23.495Z,21.13
2023-04-09T10:45:07.313Z,22.63
2023-04-09T10:47:37.351Z,21.33
2023-04-09T10:50:20.566Z,20.88
2023-04-09T10:52:52.693Z,21.20
2023-04-09T10:55:37.974Z,20.63
2023-04-09T10:58:08.458Z,20.83
2023-04-09T11:00:40.667Z,19.90
2023-04-09T11:03:24.856Z,19.98
2023-04-09T11:06:01.004Z,20.67
2023-04-09T11:08:33.241Z,19.00
2023-04-09T11:11:02.225Z,17.77
2023-04-09T11:13:31.806Z,16.70
2023-04-09T11:16:00.536Z,16.15
2023-04-09T11:18:29.958Z,16.65
2023-04-09T11:21:00.380Z,15.80
2023-04-09T11:23:28.938Z,13.98
2023-04-09T11:25:57.281Z,13.10
2023-04-09T11:28:25.534Z,14.00
2023-04-09T11:30:53.965Z,14.02
2023-04-09T11:33:22.365Z,14.18
2023-04-09T11:35:50.332Z,10.63
2023-04-09T11:38:19.608Z,11.30
2023-04-09T11:40:49.221Z,11.43
2023-04-09T11:43:18.458Z,10.48
2023-04-09T11:45:48.128Z,10.35
2023-04-09T11:48:18.109Z,10.70
2023-04-09T11:50:46.505Z,11.13
2023-04-09T11:53:20.316Z,10.93
2023-04-09T11:55:50.690Z,11.52
2023-04-09T11:58:18.702Z,12.00
2023-04-09T12:00:46.770Z,11.65
2023-04-09T12:03:16.267Z,11.63
2023-04-09T12:05:50.871Z,12.40
2023-04-09T12:08:24.974Z,12.68
2023-04-09T12:10:53.807Z,11.82
2023-04-09T12:13:22.203Z,13.10
2023-04-09T12:15:51.396Z,12.48
2023-04-09T12:18:22.419Z,11.85
2023-04-09T12:20:50.560Z,10.90
2023-04-09T12:23:19.805Z,12.35
2023-04-09T12:25:48.081Z,12.25
2023-04-09T12:28:18.409Z,12.20
2023-04-09T12:30:48.909Z,11.15
2023-04-09T12:33:16.796Z,11.98
2023-04-09T12:35:44.755Z,11.95
2023-04-09T12:38:12.733Z,11.40
2023-04-09T12:40:41.965Z,12.67
2023-04-09T12:43:09.743Z,11.63
2023-04-09T12:45:37.677Z,11.35
2023-04-09T12:48:05.820Z,11.50
2023-04-09T12:50:33.868Z,13.02
2023-04-09T12:53:01.730Z,12.10
2023-04-09T12:55:29.735Z,12.80
2023-04-09T12:57:59.395Z,12.32
2023-04-09T13:00:30.719Z,11.90
2023-04-09T13:05:44.411Z,11.57
2023-04-09T13:08:12.261Z,12.70
2023-04-09T13:10:40.177Z,12.65
2023-04-09T13:13:12.099Z,12.43
2023-04-09T13:15:40.246Z,11.82
2023-04-09T13:18:08.214Z,13.13
2023-04-09T13:20:36.452Z,12.98
2023-04-09T13:23:04.295Z,12.90
2023-04-09T13:25:32.176Z,13.70
2023-04-09T13:28:00.059Z,12.48
2023-04-09T13:30:29.363Z,13.63
2023-04-09T13:32:57.362Z,12.32
2023-04-09T13:35:25.244Z,13.13
2023-04-09T13:37:53.126Z,12.07
2023-04-09T13:40:20.932Z,12.27
2023-04-09T13:42:48.852Z,12.95
2023-04-09T13:45:16.792Z,13.07
2023-04-09T13:47:46.044Z,12.55
2023-04-09T13:50:13.991Z,12.35
2023-04-09T13:52:42.097Z,12.13
2023-04-09T13:55:11.351Z,12.23
2023-04-09T13:57:39.285Z,12.57
2023-04-09T14:00:08.578Z,13.27
2023-04-09T14:02:36.561Z,11.35
2023-04-09T14:05:06.394Z,11.68
2023-04-09T14:07:34.303Z,12.00
2023-04-09T14:10:02.563Z,11.30
2023-04-09T14:12:30.509Z,11.88
2023-04-09T14:14:58.371Z,11.35
2023-04-09T14:17:26.362Z,11.43
2023-04-09T14:19:54.282Z,11.23
2023-04-09T14:22:23.641Z,11.35
2023-04-09T14:24:51.540Z,10.83
2023-04-09T14:27:19.461Z,10.13
2023-04-09T14:29:47.385Z,11.13
2023-04-09T14:32:15.410Z,10.57
2023-04-09T14:34:43.403Z,11.50
2023-04-09T14:37:12.218Z,10.85
2023-04-09T14:39:41.524Z,10.52
2023-04-09T14:42:09.494Z,10.95
2023-04-09T14:44:37.333Z,10.50
2023-04-09T14:47:05.350Z,10.90
2023-04-09T14:49:33.309Z,11.30
2023-04-09T14:52:01.192Z,10.90
2023-04-09T14:54:31.281Z,10.93
2023-04-09T14:57:02.582Z,11.48
2023-04-09T14:59:30.589Z,10.75
2023-04-09T15:01:58.547Z,12.50
2023-04-09T15:04:26.660Z,11.52
2023-04-09T15:06:54.765Z,12.07
2023-04-09T15:09:22.702Z,12.03
2023-04-09T15:11:50.541Z,10.73
2023-04-09T15:14:20.475Z,11.13
2023-04-09T15:16:48.431Z,10.07
2023-04-09T15:19:16.440Z,10.47
2023-04-09T15:21:44.644Z,10.10
2023-04-09T15:24:12.515Z,10.32
2023-04-09T15:26:40.546Z,10.20
2023-04-09T15:29:09.217Z,9.48
2023-04-09T15:31:40.866Z,9.27
2023-04-09T15:34:09.406Z,9.02
2023-04-09T15:36:37.295Z,8.65
2023-04-09T15:39:05.389Z,9.23
2023-04-09T15:41:33.795Z,8.88
2023-04-09T15:44:01.716Z,8.70
2023-04-09T15:46:29.663Z,8.93
2023-04-09T15:48:58.841Z,8.60
2023-04-09T15:51:26.994Z,9.13
2023-04-09T15:53:54.870Z,7.70
2023-04-09T15:56:22.762Z,7.60
2023-04-09T15:58:50.706Z,7.40
2023-04-09T16:01:19.467Z,7.75
2023-04-09T16:03:51.981Z,12.52
2023-04-09T16:06:21.400Z,8.73
2023-04-09T16:08:49.281Z,7.45
2023-04-09T16:11:17.321Z,7.28
2023-04-09T16:13:45.280Z,8.50
2023-04-09T16:16:13.285Z,6.90
2023-04-09T16:18:41.211Z,7.20
2023-04-09T16:21:09.151Z,6.85
2023-04-09T16:23:38.486Z,7.60
2023-04-09T16:26:06.992Z,8.48
2023-04-09T16:28:35.023Z,8.57
2023-04-09T16:31:03.195Z,7.13
2023-04-09T16:33:31.148Z,7.13
2023-04-09T16:35:59.382Z,6.40
2023-04-09T16:38:29.123Z,6.65
2023-04-09T16:40:58.446Z,7.75
2023-04-09T16:43:26.732Z,8.15
2023-04-09T16:45:54.734Z,8.63
2023-04-09T16:48:22.678Z,8.30
2023-04-09T16:50:50.683Z,7.93
2023-04-09T16:53:18.617Z,8.65
2023-04-09T16:55:46.548Z,8.52
2023-04-09T16:58:15.882Z,8.48
2023-04-09T17:00:46.080Z,8.13
2023-04-09T17:03:14.958Z,8.57
2023-04-09T17:05:45.205Z,8.80
2023-04-09T17:08:13.043Z,8.25
2023-04-09T17:10:40.900Z,8.50
2023-04-09T17:13:08.742Z,7.15
2023-04-09T17:15:38.027Z,8.23
2023-04-09T17:18:05.976Z,8.13
2023-04-09T17:20:33.939Z,8.10
2023-04-09T17:23:02.145Z,9.15
2023-04-09T17:25:30.590Z,10.57
2023-04-09T17:27:58.816Z,9.38
2023-04-09T17:30:27.498Z,9.60
2023-04-09T17:32:56.738Z,9.68
2023-04-09T17:35:24.884Z,9.15
2023-04-09T17:37:52.761Z,9.23
2023-04-09T17:40:20.630Z,9.32
2023-04-09T17:42:49.059Z,9.20
2023-04-09T17:45:18.878Z,9.00
2023-04-09T17:47:46.919Z,8.67
2023-04-09T17:50:16.404Z,8.77
2023-04-09T17:52:44.324Z,8.55
2023-04-09T17:55:13.909Z,8.45
2023-04-09T17:57:42.695Z,8.70
2023-04-09T18:00:12.215Z,9.23
2023-04-09T18:02:53.751Z,8.80
2023-04-09T18:05:24.317Z,9.20
2023-04-09T18:07:54.547Z,8.05
2023-04-09T18:10:22.985Z,8.10
2023-04-09T18:12:51.127Z,8.10
2023-04-09T18:15:19.229Z,7.50
2023-04-09T18:17:47.350Z,6.95
2023-04-09T18:20:15.748Z,6.63
2023-04-09T18:22:45.340Z,6.60
2023-04-09T18:25:13.255Z,7.80
2023-04-09T18:27:41.149Z,7.10
2023-04-09T18:30:09.804Z,7.60
2023-04-09T18:32:38.081Z,7.40
2023-04-09T18:35:07.346Z,6.00
2023-04-09T18:37:35.236Z,5.35
2023-04-09T18:40:04.967Z,7.07
2023-04-09T18:42:32.904Z,5.93
2023-04-09T18:45:01.082Z,7.50
2023-04-09T18:47:29.018Z,7.45
2023-04-09T18:49:57.611Z,7.35
2023-04-09T18:52:25.685Z,7.25
2023-04-09T18:54:53.534Z,6.43
2023-04-09T18:57:22.748Z,6.40
2023-04-09T18:59:51.521Z,6.68
2023-04-09T19:02:19.541Z,5.87
2023-04-09T19:04:47.670Z,6.30
2023-04-09T19:07:15.631Z,6.15
2023-04-09T19:09:44.493Z,6.72
2023-04-09T19:12:12.361Z,6.85
2023-04-09T19:14:41.531Z,6.95
2023-04-09T19:17:09.574Z,7.72
2023-04-09T19:19:37.442Z,7.35
2023-04-09T19:22:05.374Z,8.25
2023-04-09T19:24:33.276Z,8.20
2023-04-09T19:27:04.739Z,8.00
2023-04-09T19:29:32.862Z,7.90
2023-04-09T19:32:02.134Z,8.07
2023-04-09T19:34:30.305Z,8.18
2023-04-09T19:36:58.239Z,7.97
2023-04-09T19:39:26.206Z,8.50
2023-04-09T19:41:54.067Z,8.38
2023-04-09T19:44:21.876Z,7.47
2023-04-09T19:46:49.770Z,6.93
2023-04-09T19:49:19.013Z,6.93
2023-04-09T19:51:46.923Z,6.95
2023-04-09T19:54:16.515Z,7.05
2023-04-09T19:56:44.409Z,7.00
2023-04-09T19:59:12.287Z,7.13
2023-04-09T20:01:40.336Z,7.68
2023-04-09T20:04:09.242Z,7.68
2023-04-09T20:06:38.576Z,7.20
2023-04-09T20:09:07.076Z,6.75
2023-04-09T20:11:35.240Z,7.78
2023-04-09T20:14:03.644Z,7.70
2023-04-09T20:16:31.618Z,8.07
2023-04-09T20:18:59.445Z,8.20
2023-04-09T20:21:27.938Z,7.97
2023-04-09T20:23:57.182Z,9.02
2023-04-09T20:26:25.140Z,8.60
2023-04-09T20:28:53.071Z,8.52
2023-04-09T20:31:21.290Z,8.15
2023-04-09T20:33:49.294Z,7.78
2023-04-09T20:36:18.294Z,10.35
2023-04-09T20:38:46.412Z,8.33
2023-04-09T20:41:15.647Z,7.95
2023-04-09T20:43:43.543Z,9.32
2023-04-09T20:46:11.813Z,9.90
2023-04-09T20:48:39.684Z,9.40
2023-04-09T20:51:10.289Z,10.73
2023-04-09T20:53:38.532Z,9.90
2023-04-09T20:56:12.457Z,10.07
2023-04-09T20:58:41.712Z,10.18
2023-04-09T21:01:10.526Z,9.80
2023-04-09T21:03:39.921Z,10.20
2023-04-09T21:06:09.078Z,9.98
2023-04-09T21:08:38.440Z,9.85
2023-04-09T21:11:06.697Z,10.07
2023-04-09T21:13:50.379Z,10.20
2023-04-09T21:16:24.737Z,9.82
2023-04-09T21:18:53.000Z,10.05
2023-04-09T21:21:21.431Z,9.75
2023-04-09T21:23:49.302Z,9.57
2023-04-09T21:26:17.134Z,9.63
2023-04-09T21:28:45.862Z,8.82
2023-04-09T21:31:15.905Z,9.40
2023-04-09T21:33:45.325Z,8.82
2023-04-09T21:36:13.307Z,8.40
2023-04-09T21:38:41.282Z,9.52
2023-04-09T21:41:09.281Z,9.13
2023-04-09T21:43:38.234Z,9.75
2023-04-09T21:46:06.540Z,9.23
2023-04-09T21:48:34.525Z,9.43
2023-04-09T21:51:03.882Z,9.57
2023-04-09T21:53:32.040Z,9.95
2023-04-09T21:55:59.948Z,9.63
2023-04-09T21:58:27.868Z,9.27
2023-04-09T22:01:04.513Z,9.73
2023-04-09T22:03:33.709Z,9.63
2023-04-09T22:06:03.242Z,11.00
2023-04-09T22:08:31.142Z,9.60
2023-04-09T22:10:58.991Z,9.55
2023-04-09T22:13:27.293Z,10.30
2023-04-09T22:15:55.213Z,9.83
2023-04-09T22:18:23.276Z,10.10
2023-04-09T22:20:51.153Z,9.50
2023-04-09T22:23:20.463Z,9.10
2023-04-09T22:25:48.350Z,9.63
2023-04-09T22:28:16.264Z,9.73
2023-04-09T22:30:44.120Z,10.23
2023-04-09T22:33:12.046Z,10.25
2023-04-09T22:35:39.895Z,10.45
2023-04-09T22:38:07.750Z,9.57
2023-04-09T22:40:37.163Z,10.57
2023-04-09T22:43:05.022Z,11.38
2023-04-09T22:45:32.824Z,10.23
2023-04-09T22:48:00.770Z,10.00
2023-04-09T22:50:28.895Z,11.20
2023-04-09T22:52:56.883Z,10.20
2023-04-09T22:55:24.770Z,10.45
2023-04-09T22:57:54.778Z,12.13
2023-04-09T23:00:22.728Z,10.30
2023-04-09T23:02:51.201Z,10.52
2023-04-09T23:05:19.309Z,9.73
2023-04-09T23:07:48.020Z,10.63
2023-04-09T23:10:17.310Z,9.30
2023-04-09T23:12:45.197Z,10.23
2023-04-09T23:15:14.477Z,10.13
2023-04-09T23:17:42.552Z,9.57
2023-04-09T23:20:14.472Z,9.75
2023-04-09T23:22:42.352Z,9.73
2023-04-09T23:25:10.776Z,10.32
2023-04-09T23:27:38.704Z,9.98
2023-04-09T23:30:07.786Z,10.32
2023-04-09T23:32:37.335Z,11.18
2023-04-09T23:35:06.593Z,9.73
2023-04-09T23:37:34.520Z,10.18
2023-04-09T23:40:02.401Z,9.75
2023-04-09T23:42:33.002Z,9.75
2023-04-09T23:45:03.788Z,10.00
2023-04-09T23:47:33.520Z,9.93
2023-04-09T23:50:05.023Z,10.05
2023-04-09T23:52:34.075Z,9.60
2023-04-09T23:55:02.035Z,9.85
2023-04-09T23:57:29.877Z,9.32
2023-04-09T23:59:57.884Z,9.55
